ASY541 KSRQ-KBTV
Flight info
| Callsign | ASY541 |
|---|---|
| Flight time | N/A |
| Altitude | 39000 |
| Route | TIDES1 CAMJO PUPYY PETTO PELTS ARMEL LAAYK BTV |
| Aircraft | F35/M-SDILOTUVY/C |
Departure
| Time | 2026-05-06 07:31 |
|---|---|
| Airport | Sarasota Bradenton International Airport (KSRQ) |
Arrival
| Time | N/A |
|---|---|
| Airport | Patrick Leahy Burlington International Airport (KBTV) |
| Time | Latitude | Longitude | Altitude | Speed | Heading |
|---|---|---|---|---|---|
| 2026-05-06 07:20 | 27.39429 | -82.54808 | 29 ft | 0 kts | 180° |
| 2026-05-06 07:25 | 27.39424 | -82.54808 | 29 ft | 3 kts | 180° |
| 2026-05-06 07:25 | 27.39389 | -82.54808 | 29 ft | 12 kts | 181° |
| 2026-05-06 07:25 | 27.39343 | -82.54835 | 29 ft | 11 kts | 256° |
| 2026-05-06 07:25 | 27.39299 | -82.54876 | 29 ft | 12 kts | 176° |
| 2026-05-06 07:26 | 27.39186 | -82.54894 | 28 ft | 15 kts | 250° |
| 2026-05-06 07:26 | 27.39227 | -82.54974 | 28 ft | 12 kts | 315° |
| 2026-05-06 07:26 | 27.39282 | -82.55037 | 28 ft | 11 kts | 314° |
| 2026-05-06 07:26 | 27.39361 | -82.55126 | 28 ft | 24 kts | 314° |
| 2026-05-06 07:27 | 27.39502 | -82.55287 | 27 ft | 34 kts | 315° |
| 2026-05-06 07:27 | 27.39685 | -82.55492 | 29 ft | 40 kts | 316° |
| 2026-05-06 07:27 | 27.39880 | -82.55710 | 29 ft | 39 kts | 314° |
| 2026-05-06 07:27 | 27.40065 | -82.55875 | 28 ft | 33 kts | 316° |
| 2026-05-06 07:28 | 27.40169 | -82.55989 | 28 ft | 32 kts | 317° |
| 2026-05-06 07:28 | 27.40317 | -82.56164 | 29 ft | 30 kts | 314° |
| 2026-05-06 07:28 | 27.40503 | -82.56500 | 29 ft | 10 kts | 240° |
| 2026-05-06 07:29 | 27.40456 | -82.56549 | 29 ft | 9 kts | 202° |
| 2026-05-06 07:29 | 27.40429 | -82.56527 | 29 ft | 0 kts | 135° |
| 2026-05-06 07:30 | 27.40017 | -82.56052 | 41 ft | 189 kts | 134° |
| 2026-05-06 07:30 | 27.39731 | -82.55723 | 75 ft | 239 kts | 134° |
| 2026-05-06 07:31 | 27.38794 | -82.54674 | 699 ft | 315 kts | 133° |
| 2026-05-06 07:31 | 27.37150 | -82.52871 | 4709 ft | 378 kts | 136° |
| 2026-05-06 07:31 | 27.34917 | -82.50418 | 7713 ft | 517 kts | 135° |
| 2026-05-06 07:32 | 27.32094 | -82.47304 | 9786 ft | 617 kts | 135° |
| 2026-05-06 07:32 | 27.28951 | -82.43830 | 10578 ft | 642 kts | 135° |
| 2026-05-06 07:32 | 27.25740 | -82.40314 | 11008 ft | 638 kts | 136° |
| 2026-05-06 07:32 | 27.22165 | -82.37337 | 11510 ft | 643 kts | 151° |
| 2026-05-06 07:33 | 27.18021 | -82.35477 | 11878 ft | 643 kts | 167° |
| 2026-05-06 07:33 | 27.13600 | -82.34902 | 12315 ft | 639 kts | 182° |
| 2026-05-06 07:33 | 27.09232 | -82.35643 | 12767 ft | 636 kts | 198° |
| 2026-05-06 07:33 | 27.05202 | -82.37629 | 13121 ft | 631 kts | 213° |
| 2026-05-06 07:34 | 27.01817 | -82.40722 | 13500 ft | 626 kts | 229° |
| 2026-05-06 07:34 | 26.99347 | -82.44627 | 13877 ft | 621 kts | 245° |
| 2026-05-06 07:34 | 26.97697 | -82.49098 | 14182 ft | 618 kts | 252° |
| 2026-05-06 07:34 | 26.96357 | -82.53673 | 14486 ft | 617 kts | 255° |
| 2026-05-06 07:35 | 26.95309 | -82.58316 | 14805 ft | 612 kts | 265° |
| 2026-05-06 07:35 | 26.95335 | -82.63049 | 15150 ft | 606 kts | 281° |
| 2026-05-06 07:35 | 26.96515 | -82.67531 | 15480 ft | 599 kts | 297° |
| 2026-05-06 07:35 | 26.98708 | -82.71363 | 15825 ft | 593 kts | 313° |
| 2026-05-06 07:36 | 27.01807 | -82.74364 | 16198 ft | 589 kts | 328° |
| 2026-05-06 07:36 | 27.05526 | -82.76227 | 16585 ft | 586 kts | 345° |
| 2026-05-06 07:36 | 27.09549 | -82.76778 | 17099 ft | 585 kts | 1° |
| 2026-05-06 07:36 | 27.13600 | -82.76237 | 17610 ft | 585 kts | 8° |
| 2026-05-06 07:37 | 27.17591 | -82.75361 | 17967 ft | 585 kts | 10° |
| 2026-05-06 07:37 | 27.21573 | -82.74375 | 18301 ft | 584 kts | 10° |
| 2026-05-06 07:37 | 27.25476 | -82.73369 | 18598 ft | 583 kts | 9° |
| 2026-05-06 07:37 | 27.29488 | -82.72895 | 18890 ft | 578 kts | 358° |
| 2026-05-06 07:38 | 27.33487 | -82.73145 | 19207 ft | 575 kts | 350° |
| 2026-05-06 07:38 | 27.37335 | -82.74302 | 19637 ft | 570 kts | 336° |
| 2026-05-06 07:38 | 27.40914 | -82.76234 | 20116 ft | 569 kts | 332° |
| 2026-05-06 07:38 | 27.44447 | -82.78261 | 20526 ft | 569 kts | 338° |
| 2026-05-06 07:39 | 27.48277 | -82.79398 | 20911 ft | 572 kts | 351° |
| 2026-05-06 07:39 | 27.52258 | -82.79468 | 21266 ft | 576 kts | 2° |
| 2026-05-06 07:39 | 27.56258 | -82.79018 | 21573 ft | 577 kts | 3° |
| 2026-05-06 07:39 | 27.60264 | -82.78836 | 21911 ft | 574 kts | 356° |
| 2026-05-06 07:40 | 27.64207 | -82.78970 | 22218 ft | 574 kts | 357° |
| 2026-05-06 07:40 | 27.68200 | -82.78881 | 22559 ft | 574 kts | 359° |
| 2026-05-06 07:40 | 27.72189 | -82.78877 | 22892 ft | 573 kts | 357° |
| 2026-05-06 07:40 | 27.76177 | -82.78858 | 23234 ft | 573 kts | 358° |
| 2026-05-06 07:41 | 27.80164 | -82.78814 | 23584 ft | 572 kts | 358° |
| 2026-05-06 07:41 | 27.84141 | -82.78808 | 23887 ft | 571 kts | 358° |
| 2026-05-06 07:41 | 27.88114 | -82.78770 | 24174 ft | 570 kts | 358° |
| 2026-05-06 07:41 | 27.92082 | -82.78750 | 24453 ft | 569 kts | 357° |
| 2026-05-06 07:42 | 27.96038 | -82.78726 | 24740 ft | 568 kts | 357° |
| 2026-05-06 07:42 | 27.99998 | -82.78698 | 25047 ft | 567 kts | 357° |
| 2026-05-06 07:42 | 28.03946 | -82.78677 | 25352 ft | 566 kts | 357° |
| 2026-05-06 07:42 | 28.07829 | -82.78650 | 25662 ft | 565 kts | 357° |
| 2026-05-06 07:43 | 28.11766 | -82.78626 | 25960 ft | 564 kts | 357° |
| 2026-05-06 07:43 | 28.15696 | -82.78602 | 26281 ft | 563 kts | 357° |
| 2026-05-06 07:43 | 28.19614 | -82.78577 | 26595 ft | 562 kts | 356° |
| 2026-05-06 07:43 | 28.23520 | -82.78552 | 26918 ft | 560 kts | 356° |
| 2026-05-06 07:44 | 28.27413 | -82.78528 | 27240 ft | 559 kts | 356° |
| 2026-05-06 07:44 | 28.31312 | -82.78503 | 27570 ft | 558 kts | 356° |
| 2026-05-06 07:44 | 28.35193 | -82.78479 | 27918 ft | 557 kts | 356° |
| 2026-05-06 07:44 | 28.39017 | -82.78463 | 28257 ft | 556 kts | 356° |
| 2026-05-06 07:45 | 28.42882 | -82.78359 | 28613 ft | 558 kts | 0° |
| 2026-05-06 07:45 | 28.46757 | -82.77886 | 28990 ft | 558 kts | 0° |
| 2026-05-06 07:45 | 28.50622 | -82.77586 | 29361 ft | 555 kts | 359° |
| 2026-05-06 07:45 | 28.54484 | -82.77235 | 29760 ft | 555 kts | 0° |
| 2026-05-06 07:46 | 28.58331 | -82.76870 | 30167 ft | 553 kts | 359° |
| 2026-05-06 07:46 | 28.62169 | -82.76550 | 30572 ft | 551 kts | 359° |
| 2026-05-06 07:46 | 28.65977 | -82.76189 | 30990 ft | 548 kts | 359° |
| 2026-05-06 07:46 | 28.69779 | -82.75853 | 31414 ft | 546 kts | 359° |
| 2026-05-06 07:47 | 28.73507 | -82.75520 | 31771 ft | 544 kts | 359° |
| 2026-05-06 07:47 | 28.77281 | -82.75174 | 32158 ft | 542 kts | 359° |
| 2026-05-06 07:47 | 28.81031 | -82.74840 | 32561 ft | 539 kts | 359° |
| 2026-05-06 07:47 | 28.84773 | -82.74501 | 32954 ft | 538 kts | 359° |
| 2026-05-06 07:48 | 28.88492 | -82.74164 | 33337 ft | 535 kts | 359° |
| 2026-05-06 07:48 | 28.92196 | -82.73831 | 33754 ft | 533 kts | 359° |
| 2026-05-06 07:48 | 28.94646 | -82.73608 | 34037 ft | 532 kts | 359° |
| 2026-05-06 07:48 | 28.98338 | -82.73273 | 34404 ft | 530 kts | 358° |
| 2026-05-06 07:49 | 29.02003 | -82.72942 | 34814 ft | 527 kts | 358° |
| 2026-05-06 07:49 | 29.05668 | -82.72609 | 35244 ft | 525 kts | 358° |
| 2026-05-06 07:49 | 29.09305 | -82.72279 | 35720 ft | 523 kts | 358° |
| 2026-05-06 07:49 | 29.12928 | -82.71951 | 36163 ft | 521 kts | 358° |
| 2026-05-06 07:50 | 29.17709 | -82.71516 | 36769 ft | 519 kts | 358° |
| 2026-05-06 07:50 | 29.20141 | -82.71295 | 37055 ft | 518 kts | 358° |
| 2026-05-06 07:50 | 29.23739 | -82.70968 | 37494 ft | 517 kts | 358° |
| 2026-05-06 07:50 | 29.27273 | -82.70646 | 37912 ft | 516 kts | 357° |
| 2026-05-06 07:51 | 29.30852 | -82.70320 | 38292 ft | 515 kts | 357° |
| 2026-05-06 07:51 | 29.34431 | -82.69994 | 38455 ft | 517 kts | 357° |
| 2026-05-06 07:51 | 29.41617 | -82.69300 | 38509 ft | 518 kts | 356° |
| 2026-05-06 07:52 | 29.48755 | -82.69324 | 38531 ft | 514 kts | 354° |
| 2026-05-06 07:52 | 29.55875 | -82.69242 | 38522 ft | 513 kts | 353° |
| 2026-05-06 07:53 | 29.63035 | -82.69177 | 38523 ft | 514 kts | 353° |
| 2026-05-06 07:53 | 29.70201 | -82.69141 | 38524 ft | 515 kts | 353° |
| 2026-05-06 07:54 | 29.77369 | -82.69102 | 38533 ft | 515 kts | 353° |
| 2026-05-06 07:54 | 29.84544 | -82.69054 | 38548 ft | 515 kts | 353° |
| 2026-05-06 07:55 | 29.91718 | -82.69008 | 38540 ft | 515 kts | 353° |
| 2026-05-06 07:55 | 29.98851 | -82.68964 | 38531 ft | 516 kts | 353° |
| 2026-05-06 07:56 | 30.06039 | -82.68920 | 38541 ft | 516 kts | 353° |
| 2026-05-06 07:56 | 30.13231 | -82.68875 | 38539 ft | 517 kts | 353° |
| 2026-05-06 07:57 | 30.20422 | -82.68829 | 38554 ft | 516 kts | 353° |
| 2026-05-06 07:57 | 30.27611 | -82.68785 | 38567 ft | 516 kts | 353° |
| 2026-05-06 07:58 | 30.34810 | -82.68740 | 38612 ft | 517 kts | 353° |
| 2026-05-06 07:58 | 30.41968 | -82.68695 | 38598 ft | 517 kts | 353° |
| 2026-05-06 07:59 | 30.49169 | -82.68344 | 38693 ft | 530 kts | 6° |
| 2026-05-06 07:59 | 30.52676 | -82.66785 | 38802 ft | 552 kts | 20° |
| 2026-05-06 07:59 | 30.55913 | -82.64254 | 38810 ft | 570 kts | 32° |
| 2026-05-06 08:00 | 30.61871 | -82.58066 | 38660 ft | 572 kts | 31° |
| 2026-05-06 08:00 | 30.68054 | -82.52264 | 38588 ft | 573 kts | 32° |
| 2026-05-06 08:01 | 30.74188 | -82.46422 | 38674 ft | 570 kts | 31° |
| 2026-05-06 08:01 | 30.80297 | -82.40556 | 38781 ft | 570 kts | 31° |
| 2026-05-06 08:02 | 30.86410 | -82.34673 | 38767 ft | 570 kts | 31° |
| 2026-05-06 08:02 | 30.92502 | -82.28818 | 38719 ft | 570 kts | 31° |
| 2026-05-06 08:03 | 30.98610 | -82.22939 | 38690 ft | 570 kts | 31° |
| 2026-05-06 08:03 | 31.04733 | -82.17031 | 38643 ft | 570 kts | 31° |
| 2026-05-06 08:04 | 31.10836 | -82.11132 | 38638 ft | 570 kts | 31° |
| 2026-05-06 08:04 | 31.16899 | -82.05260 | 38527 ft | 568 kts | 31° |
| 2026-05-06 08:05 | 31.22995 | -81.99350 | 38539 ft | 567 kts | 31° |
| 2026-05-06 08:05 | 31.29066 | -81.93453 | 38609 ft | 568 kts | 31° |
| 2026-05-06 08:06 | 31.35147 | -81.87533 | 38569 ft | 568 kts | 31° |
| 2026-05-06 08:06 | 31.41458 | -81.82171 | 38618 ft | 549 kts | 18° |
| 2026-05-06 08:07 | 31.48301 | -81.78665 | 38605 ft | 532 kts | 7° |
| 2026-05-06 08:07 | 31.55345 | -81.75840 | 38564 ft | 537 kts | 11° |
| 2026-05-06 08:08 | 31.62361 | -81.72953 | 38551 ft | 536 kts | 11° |
| 2026-05-06 08:08 | 31.69367 | -81.70020 | 38595 ft | 534 kts | 10° |
| 2026-05-06 08:09 | 31.76373 | -81.67073 | 38708 ft | 533 kts | 9° |
| 2026-05-06 08:09 | 31.83376 | -81.64140 | 38759 ft | 534 kts | 9° |
| 2026-05-06 08:10 | 31.90335 | -81.61223 | 38767 ft | 534 kts | 9° |
| 2026-05-06 08:10 | 31.97345 | -81.58273 | 38704 ft | 534 kts | 9° |
| 2026-05-06 08:11 | 32.04351 | -81.55321 | 38727 ft | 535 kts | 9° |
| 2026-05-06 08:11 | 32.11363 | -81.52364 | 38754 ft | 535 kts | 9° |
| 2026-05-06 08:12 | 32.18377 | -81.49400 | 38843 ft | 535 kts | 9° |
| 2026-05-06 08:12 | 32.25363 | -81.46443 | 38867 ft | 536 kts | 9° |
| 2026-05-06 08:13 | 32.32400 | -81.43459 | 38818 ft | 537 kts | 9° |
| 2026-05-06 08:13 | 32.39443 | -81.40468 | 38787 ft | 537 kts | 9° |
| 2026-05-06 08:14 | 32.46485 | -81.37473 | 38807 ft | 537 kts | 9° |
| 2026-05-06 08:14 | 32.53485 | -81.34490 | 38818 ft | 538 kts | 9° |
| 2026-05-06 08:15 | 32.60545 | -81.31477 | 38716 ft | 539 kts | 9° |
| 2026-05-06 08:15 | 32.67606 | -81.28459 | 38738 ft | 539 kts | 9° |
| 2026-05-06 08:16 | 32.74684 | -81.25427 | 38691 ft | 540 kts | 9° |
| 2026-05-06 08:16 | 32.81730 | -81.22405 | 38561 ft | 541 kts | 9° |
| 2026-05-06 08:17 | 32.88810 | -81.19362 | 38686 ft | 539 kts | 9° |
| 2026-05-06 08:17 | 32.95876 | -81.16322 | 38793 ft | 540 kts | 9° |
| 2026-05-06 08:18 | 33.02944 | -81.13276 | 38734 ft | 540 kts | 9° |
| 2026-05-06 08:18 | 33.09924 | -81.09708 | 38784 ft | 554 kts | 16° |
| 2026-05-06 08:19 | 33.16865 | -81.05876 | 38750 ft | 550 kts | 15° |
| 2026-05-06 08:19 | 33.23797 | -81.02003 | 38760 ft | 549 kts | 14° |
| 2026-05-06 08:20 | 33.30686 | -80.98151 | 38791 ft | 549 kts | 13° |
| 2026-05-06 08:20 | 33.37632 | -80.94285 | 38796 ft | 550 kts | 14° |
| 2026-05-06 08:21 | 33.44580 | -80.90413 | 38729 ft | 550 kts | 14° |
| 2026-05-06 08:21 | 33.51508 | -80.86537 | 38801 ft | 549 kts | 14° |
| 2026-05-06 08:22 | 33.58450 | -80.82646 | 38782 ft | 550 kts | 14° |
| 2026-05-06 08:22 | 33.65310 | -80.78789 | 38767 ft | 538 kts | 14° |
| 2026-05-06 08:23 | 33.72121 | -80.74964 | 38740 ft | 545 kts | 14° |
| 2026-05-06 08:23 | 33.79017 | -80.71086 | 38788 ft | 548 kts | 14° |
| 2026-05-06 08:24 | 33.85940 | -80.67177 | 38775 ft | 548 kts | 14° |
| 2026-05-06 08:24 | 33.92838 | -80.63276 | 38760 ft | 548 kts | 14° |
| 2026-05-06 08:25 | 33.99700 | -80.59391 | 38778 ft | 547 kts | 14° |
| 2026-05-06 08:25 | 34.06603 | -80.55475 | 38827 ft | 548 kts | 14° |
| 2026-05-06 08:26 | 34.13509 | -80.51551 | 38874 ft | 547 kts | 14° |
| 2026-05-06 08:26 | 34.20403 | -80.47625 | 38837 ft | 547 kts | 14° |
| 2026-05-06 08:27 | 34.27289 | -80.43698 | 38702 ft | 546 kts | 14° |
| 2026-05-06 08:27 | 34.34095 | -80.39808 | 38663 ft | 543 kts | 14° |
| 2026-05-06 08:28 | 34.40946 | -80.35886 | 38661 ft | 543 kts | 14° |
| 2026-05-06 08:28 | 34.47798 | -80.31957 | 38675 ft | 543 kts | 14° |
| 2026-05-06 08:29 | 34.54586 | -80.28057 | 38604 ft | 542 kts | 14° |
| 2026-05-06 08:29 | 34.61397 | -80.24136 | 38559 ft | 541 kts | 14° |
| 2026-05-06 08:30 | 34.68199 | -80.20215 | 38535 ft | 540 kts | 14° |
| 2026-05-06 08:30 | 34.74981 | -80.16297 | 38527 ft | 540 kts | 14° |
| 2026-05-06 08:31 | 34.81756 | -80.12376 | 38540 ft | 539 kts | 14° |
| 2026-05-06 08:31 | 34.88544 | -80.08441 | 38559 ft | 539 kts | 14° |
| 2026-05-06 08:32 | 34.95305 | -80.04513 | 38567 ft | 538 kts | 14° |
| 2026-05-06 08:32 | 35.02026 | -80.00602 | 38700 ft | 538 kts | 14° |
| 2026-05-06 08:33 | 35.08794 | -79.96655 | 38721 ft | 539 kts | 14° |
| 2026-05-06 08:33 | 35.15558 | -79.92705 | 38700 ft | 539 kts | 14° |
| 2026-05-06 08:34 | 35.24550 | -79.87442 | 38615 ft | 537 kts | 14° |
| 2026-05-06 08:35 | 35.31294 | -79.83485 | 38609 ft | 535 kts | 14° |
| 2026-05-06 08:35 | 35.38033 | -79.79526 | 38616 ft | 536 kts | 14° |
| 2026-05-06 08:36 | 35.44712 | -79.75592 | 38588 ft | 536 kts | 14° |
| 2026-05-06 08:36 | 35.51435 | -79.71627 | 38560 ft | 535 kts | 14° |
| 2026-05-06 08:37 | 35.58153 | -79.67656 | 38597 ft | 534 kts | 14° |
| 2026-05-06 08:37 | 35.64866 | -79.63682 | 38605 ft | 536 kts | 14° |
| 2026-05-06 08:38 | 35.71602 | -79.59686 | 38587 ft | 536 kts | 14° |
| 2026-05-06 08:38 | 35.78330 | -79.55687 | 38562 ft | 537 kts | 14° |
| 2026-05-06 08:39 | 35.85021 | -79.51703 | 38522 ft | 537 kts | 14° |
| 2026-05-06 08:39 | 35.91751 | -79.47688 | 38558 ft | 537 kts | 14° |
| 2026-05-06 08:40 | 35.98505 | -79.43734 | 38552 ft | 539 kts | 15° |
| 2026-05-06 08:40 | 36.05185 | -79.39390 | 38506 ft | 539 kts | 15° |
| 2026-05-06 08:41 | 36.11863 | -79.35098 | 38509 ft | 540 kts | 15° |
| 2026-05-06 08:41 | 36.18501 | -79.30856 | 38521 ft | 539 kts | 16° |
| 2026-05-06 08:42 | 36.25156 | -79.26582 | 38492 ft | 538 kts | 15° |
| 2026-05-06 08:42 | 36.31797 | -79.22295 | 38487 ft | 537 kts | 15° |
| 2026-05-06 08:43 | 36.38384 | -79.18042 | 38485 ft | 536 kts | 15° |
| 2026-05-06 08:43 | 36.45002 | -79.13763 | 38447 ft | 536 kts | 16° |
| 2026-05-06 08:44 | 36.51614 | -79.09476 | 38437 ft | 535 kts | 15° |
| 2026-05-06 08:44 | 36.58216 | -79.05189 | 38439 ft | 535 kts | 16° |
| 2026-05-06 08:45 | 36.64829 | -79.00886 | 38430 ft | 536 kts | 16° |
| 2026-05-06 08:45 | 36.71451 | -78.96570 | 38454 ft | 537 kts | 16° |
| 2026-05-06 08:46 | 36.78046 | -78.92262 | 38455 ft | 539 kts | 16° |
| 2026-05-06 08:46 | 36.84702 | -78.87905 | 38440 ft | 540 kts | 16° |
| 2026-05-06 08:47 | 36.91373 | -78.83530 | 38433 ft | 541 kts | 16° |
| 2026-05-06 08:47 | 36.98044 | -78.79147 | 38444 ft | 542 kts | 16° |
| 2026-05-06 08:48 | 37.04697 | -78.74766 | 38445 ft | 543 kts | 16° |
| 2026-05-06 08:48 | 37.11393 | -78.70348 | 38422 ft | 545 kts | 16° |
| 2026-05-06 08:49 | 37.18111 | -78.65907 | 38424 ft | 546 kts | 16° |
| 2026-05-06 08:49 | 37.24855 | -78.61439 | 38415 ft | 548 kts | 16° |
| 2026-05-06 08:50 | 37.31593 | -78.56967 | 38420 ft | 550 kts | 16° |
| 2026-05-06 08:50 | 37.38352 | -78.52471 | 38418 ft | 550 kts | 16° |
| 2026-05-06 08:51 | 37.45125 | -78.47957 | 38415 ft | 551 kts | 16° |
| 2026-05-06 08:51 | 37.51903 | -78.43430 | 38411 ft | 551 kts | 16° |
| 2026-05-06 08:52 | 37.58675 | -78.38897 | 38410 ft | 552 kts | 16° |
| 2026-05-06 08:52 | 37.65465 | -78.34343 | 38420 ft | 551 kts | 16° |
| 2026-05-06 08:53 | 37.72199 | -78.29818 | 38449 ft | 552 kts | 16° |
| 2026-05-06 08:53 | 37.78986 | -78.25247 | 38416 ft | 552 kts | 16° |
| 2026-05-06 08:54 | 37.85764 | -78.20674 | 38401 ft | 552 kts | 16° |
| 2026-05-06 08:54 | 37.92545 | -78.16087 | 38405 ft | 552 kts | 16° |
| 2026-05-06 08:55 | 37.99328 | -78.11490 | 38405 ft | 553 kts | 16° |
| 2026-05-06 08:55 | 38.06081 | -78.06904 | 38405 ft | 553 kts | 16° |
| 2026-05-06 08:56 | 38.12865 | -78.02287 | 38379 ft | 554 kts | 16° |
| 2026-05-06 08:56 | 38.19669 | -77.97646 | 38382 ft | 553 kts | 16° |
| 2026-05-06 08:57 | 38.26457 | -77.93007 | 38382 ft | 554 kts | 16° |
| 2026-05-06 08:57 | 38.33224 | -77.88372 | 38378 ft | 554 kts | 16° |
| 2026-05-06 08:58 | 38.40018 | -77.83709 | 38390 ft | 554 kts | 16° |
| 2026-05-06 08:58 | 38.46804 | -77.79040 | 38391 ft | 554 kts | 16° |
| 2026-05-06 08:59 | 38.53583 | -77.74367 | 38380 ft | 554 kts | 16° |
| 2026-05-06 08:59 | 38.60364 | -77.69682 | 38380 ft | 554 kts | 17° |
| 2026-05-06 09:00 | 38.67106 | -77.65014 | 38383 ft | 555 kts | 17° |
| 2026-05-06 09:00 | 38.73905 | -77.60296 | 38384 ft | 555 kts | 17° |
| 2026-05-06 09:01 | 38.80699 | -77.55572 | 38378 ft | 556 kts | 17° |
| 2026-05-06 09:01 | 38.87507 | -77.50827 | 38348 ft | 556 kts | 17° |
| 2026-05-06 09:02 | 38.94314 | -77.46108 | 38354 ft | 560 kts | 20° |
| 2026-05-06 09:02 | 39.01028 | -77.41030 | 38360 ft | 559 kts | 18° |
| 2026-05-06 09:03 | 39.07720 | -77.35975 | 38354 ft | 560 kts | 19° |
| 2026-05-06 09:03 | 39.14450 | -77.30919 | 38366 ft | 562 kts | 19° |
| 2026-05-06 09:04 | 39.21214 | -77.25834 | 38371 ft | 562 kts | 19° |
| 2026-05-06 09:04 | 39.27971 | -77.20731 | 38364 ft | 562 kts | 19° |
| 2026-05-06 09:05 | 39.34724 | -77.15614 | 38356 ft | 563 kts | 19° |
| 2026-05-06 09:05 | 39.41483 | -77.10489 | 38353 ft | 563 kts | 19° |
| 2026-05-06 09:06 | 39.48203 | -77.05381 | 38354 ft | 563 kts | 20° |
| 2026-05-06 09:06 | 39.54978 | -77.00218 | 38336 ft | 566 kts | 20° |
| 2026-05-06 09:07 | 39.61770 | -76.95029 | 38348 ft | 567 kts | 20° |
| 2026-05-06 09:07 | 39.68587 | -76.89811 | 38343 ft | 568 kts | 20° |
| 2026-05-06 09:08 | 39.75404 | -76.84581 | 38306 ft | 569 kts | 20° |
| 2026-05-06 09:08 | 39.82176 | -76.79372 | 38324 ft | 569 kts | 20° |
| 2026-05-06 09:09 | 39.89003 | -76.74108 | 38310 ft | 570 kts | 20° |
| 2026-05-06 09:09 | 39.95838 | -76.68827 | 38317 ft | 570 kts | 20° |
| 2026-05-06 09:10 | 40.02652 | -76.63550 | 38305 ft | 569 kts | 20° |
| 2026-05-06 09:10 | 40.09452 | -76.58270 | 38300 ft | 568 kts | 20° |
| 2026-05-06 09:11 | 40.16250 | -76.52981 | 38296 ft | 568 kts | 20° |
| 2026-05-06 09:11 | 40.23005 | -76.47712 | 38320 ft | 568 kts | 20° |
| 2026-05-06 09:12 | 40.29795 | -76.42403 | 38300 ft | 568 kts | 20° |
| 2026-05-06 09:12 | 40.36590 | -76.37078 | 38298 ft | 568 kts | 21° |